createdAt,value
2018-12-06T00:02:16.509Z,80.79
2018-12-06T00:04:44.898Z,81.00
2018-12-06T00:07:13.263Z,80.95
2018-12-06T00:09:41.630Z,81.09
2018-12-06T00:12:09.999Z,81.07
2018-12-06T00:14:38.380Z,81.02
2018-12-06T00:17:06.767Z,81.07
2018-12-06T00:19:35.145Z,81.07
2018-12-06T00:22:03.524Z,81.18
2018-12-06T00:24:31.901Z,81.10
2018-12-06T00:27:00.295Z,81.10
2018-12-06T00:29:28.674Z,81.00
2018-12-06T00:31:57.059Z,81.17
2018-12-06T00:34:25.431Z,81.28
2018-12-06T00:36:53.799Z,80.98
2018-12-06T00:39:22.181Z,80.78
2018-12-06T00:41:50.579Z,80.68
2018-12-06T00:44:18.952Z,80.16
2018-12-06T00:46:47.314Z,80.25
2018-12-06T00:49:15.691Z,80.47
2018-12-06T00:51:44.081Z,80.35
2018-12-06T00:54:12.468Z,80.37
2018-12-06T00:56:40.848Z,80.41
2018-12-06T00:59:09.211Z,80.25
2018-12-06T01:01:37.584Z,80.24
2018-12-06T01:04:05.946Z,80.14
2018-12-06T01:06:34.317Z,80.17
2018-12-06T01:09:02.680Z,79.98
2018-12-06T01:11:31.056Z,80.02
2018-12-06T01:13:59.426Z,80.00
2018-12-06T01:16:27.807Z,80.02
2018-12-06T01:18:56.167Z,80.26
2018-12-06T01:21:24.546Z,80.05
2018-12-06T01:23:52.909Z,80.09
2018-12-06T01:26:21.281Z,79.96
2018-12-06T01:28:49.654Z,79.94
2018-12-06T01:31:18.032Z,79.99
2018-12-06T01:33:46.407Z,79.88
2018-12-06T01:36:14.790Z,79.88
2018-12-06T01:38:43.168Z,79.78
2018-12-06T01:41:11.760Z,79.70
2018-12-06T01:43:39.927Z,79.53
2018-12-06T01:46:08.304Z,79.14
2018-12-06T01:48:36.679Z,79.52
2018-12-06T01:51:05.049Z,79.63
2018-12-06T01:53:33.438Z,79.70
2018-12-06T01:56:01.814Z,79.78
2018-12-06T01:58:30.186Z,80.64
2018-12-06T02:00:58.561Z,80.40
2018-12-06T02:03:26.929Z,80.44
2018-12-06T02:05:55.309Z,80.73
2018-12-06T02:08:23.680Z,81.23
2018-12-06T02:10:52.056Z,81.09
2018-12-06T02:13:20.434Z,81.19
2018-12-06T02:15:48.811Z,81.48
2018-12-06T02:18:17.191Z,81.54
2018-12-06T02:20:45.564Z,81.61
2018-12-06T02:23:13.942Z,81.07
2018-12-06T02:25:42.317Z,81.31
2018-12-06T02:28:10.701Z,81.19
2018-12-06T02:30:39.076Z,81.08
2018-12-06T02:33:07.545Z,80.90
2018-12-06T02:35:35.938Z,80.62
2018-12-06T02:38:04.310Z,80.37
2018-12-06T02:40:32.688Z,80.35
2018-12-06T02:43:01.042Z,80.35
2018-12-06T02:45:29.446Z,80.34
2018-12-06T02:47:57.821Z,80.68
2018-12-06T02:50:26.208Z,81.34
2018-12-06T02:52:54.845Z,81.48
2018-12-06T02:55:23.224Z,81.94
2018-12-06T02:57:51.602Z,81.61
2018-12-06T03:00:20.193Z,81.81
2018-12-06T03:02:48.336Z,81.97
2018-12-06T03:05:16.718Z,81.83
2018-12-06T03:07:45.126Z,81.77
2018-12-06T03:10:13.495Z,81.62
2018-12-06T03:12:41.874Z,81.54
2018-12-06T03:15:10.273Z,81.70
2018-12-06T03:17:38.640Z,81.42
2018-12-06T03:20:07.146Z,81.41
2018-12-06T03:22:35.523Z,81.24
2018-12-06T03:25:03.913Z,80.70
2018-12-06T03:27:32.283Z,81.24
2018-12-06T03:30:00.660Z,81.29
2018-12-06T03:32:29.052Z,81.84
2018-12-06T03:34:57.440Z,82.37
2018-12-06T03:37:25.801Z,82.34
2018-12-06T03:39:54.176Z,82.29
2018-12-06T03:42:22.601Z,82.12
2018-12-06T03:44:50.984Z,82.02
2018-12-06T03:47:19.384Z,81.87
2018-12-06T03:49:47.755Z,81.87
2018-12-06T03:52:16.143Z,81.88
2018-12-06T03:54:44.493Z,81.85
2018-12-06T03:57:12.868Z,81.84
2018-12-06T03:59:41.258Z,81.78
2018-12-06T04:02:09.629Z,81.89
2018-12-06T04:04:38.014Z,81.81
2018-12-06T04:07:06.392Z,81.81
2018-12-06T04:09:34.768Z,81.86
2018-12-06T04:12:03.149Z,81.26
2018-12-06T04:14:31.530Z,81.56
2018-12-06T04:16:59.910Z,82.12
2018-12-06T04:19:28.280Z,81.83
2018-12-06T04:21:56.671Z,82.23
2018-12-06T04:24:25.054Z,82.10
2018-12-06T04:26:53.448Z,82.10
2018-12-06T04:29:21.841Z,81.95
2018-12-06T04:31:50.299Z,82.26
2018-12-06T04:34:18.586Z,82.27
2018-12-06T04:36:46.964Z,82.21
2018-12-06T04:39:15.345Z,82.18
2018-12-06T04:41:43.725Z,82.12
2018-12-06T04:44:12.119Z,81.87
2018-12-06T04:46:40.698Z,82.16
2018-12-06T04:49:08.859Z,82.22
2018-12-06T04:51:37.239Z,82.01
2018-12-06T04:54:05.617Z,82.53
2018-12-06T04:56:34.007Z,82.41
2018-12-06T04:59:02.388Z,82.51
2018-12-06T05:01:30.752Z,82.12
2018-12-06T05:03:59.132Z,81.98
2018-12-06T05:06:26.931Z,82.40
2018-12-06T05:08:55.928Z,82.42
2018-12-06T05:11:24.309Z,82.21
2018-12-06T05:13:52.688Z,82.09
2018-12-06T05:16:21.065Z,82.06
2018-12-06T05:18:49.435Z,81.86
2018-12-06T05:21:17.805Z,81.78
2018-12-06T05:23:46.415Z,81.63
2018-12-06T05:26:14.793Z,81.78
2018-12-06T05:28:43.168Z,82.20
2018-12-06T05:31:11.534Z,82.14
2018-12-06T05:33:39.929Z,81.88
2018-12-06T05:36:08.294Z,81.65
2018-12-06T05:38:36.664Z,81.44
2018-12-06T05:41:05.054Z,81.38
2018-12-06T05:43:33.412Z,81.51
2018-12-06T05:46:01.798Z,81.36
2018-12-06T05:48:30.170Z,81.29
2018-12-06T05:50:58.579Z,81.39
2018-12-06T05:53:26.960Z,81.39
2018-12-06T05:55:55.337Z,81.38
2018-12-06T05:58:23.729Z,81.33
2018-12-06T06:00:52.098Z,81.23
2018-12-06T06:03:20.503Z,81.29
2018-12-06T06:05:48.898Z,81.34
2018-12-06T06:08:17.281Z,81.28
2018-12-06T06:10:45.650Z,81.31
2018-12-06T06:13:14.022Z,81.53
2018-12-06T06:15:42.395Z,81.57
2018-12-06T06:18:10.771Z,81.37
2018-12-06T06:20:39.140Z,81.20
2018-12-06T06:23:07.525Z,80.90
2018-12-06T06:25:35.907Z,80.64
2018-12-06T06:28:04.315Z,80.46
2018-12-06T06:30:32.694Z,80.29
2018-12-06T06:33:01.097Z,80.17
2018-12-06T06:35:30.241Z,79.87
2018-12-06T06:37:58.629Z,79.78
2018-12-06T06:40:27.040Z,79.62
2018-12-06T06:42:55.394Z,79.28
2018-12-06T06:45:23.779Z,79.22
2018-12-06T06:47:52.204Z,79.30
2018-12-06T06:50:20.511Z,79.26
2018-12-06T06:52:50.345Z,79.06
2018-12-06T06:55:17.295Z,79.08
2018-12-06T06:57:45.662Z,79.07
2018-12-06T07:00:14.034Z,78.87
2018-12-06T07:02:42.403Z,78.70
2018-12-06T07:05:11.103Z,78.63
2018-12-06T07:07:39.544Z,78.33
2018-12-06T07:10:07.833Z,77.78
2018-12-06T07:12:36.231Z,77.52
2018-12-06T07:15:04.947Z,77.29
2018-12-06T07:17:33.304Z,77.13
2018-12-06T07:20:01.691Z,76.53
2018-12-06T07:22:30.040Z,76.04
2018-12-06T07:24:58.389Z,75.00
2018-12-06T07:27:26.728Z,75.15
2018-12-06T07:29:55.057Z,75.25
2018-12-06T07:32:23.398Z,74.86
2018-12-06T07:34:51.758Z,73.87
2018-12-06T07:37:20.108Z,73.82
2018-12-06T07:39:48.430Z,73.53
2018-12-06T07:42:17.748Z,73.52
2018-12-06T07:44:46.076Z,73.37
2018-12-06T07:47:14.403Z,72.85
2018-12-06T07:49:42.733Z,72.97
2018-12-06T07:52:11.071Z,72.71
2018-12-06T07:54:39.655Z,72.40
2018-12-06T07:57:07.792Z,72.30
2018-12-06T07:59:36.118Z,72.15
2018-12-06T08:02:04.452Z,72.44
2018-12-06T08:04:33.132Z,71.42
2018-12-06T08:07:01.455Z,71.57
2018-12-06T08:09:29.800Z,71.65
2018-12-06T08:11:58.147Z,71.33
2018-12-06T08:44:21.297Z,68.52
2018-12-06T08:46:46.816Z,68.56
2018-12-06T08:49:15.160Z,68.35
2018-12-06T08:51:43.613Z,68.09
2018-12-06T08:54:12.022Z,67.83
2018-12-06T08:56:40.370Z,67.58
2018-12-06T08:59:08.694Z,67.09
2018-12-06T09:01:37.021Z,66.87
2018-12-06T09:04:05.418Z,66.95
2018-12-06T09:06:33.817Z,67.24
2018-12-06T09:09:02.244Z,67.25
2018-12-06T09:11:30.617Z,66.51
2018-12-06T09:13:58.988Z,66.37
2018-12-06T09:16:27.500Z,66.15
2018-12-06T09:18:56.522Z,66.28
2018-12-06T09:21:24.851Z,66.29
2018-12-06T09:23:53.908Z,65.81
2018-12-06T09:26:22.507Z,66.29
2018-12-06T09:28:50.874Z,66.21
2018-12-06T09:31:19.197Z,66.05
2018-12-06T09:33:59.218Z,66.01
2018-12-06T09:36:27.655Z,66.12
2018-12-06T09:38:55.978Z,66.39
2018-12-06T09:41:24.320Z,66.21
2018-12-06T09:43:52.697Z,66.32
2018-12-06T09:46:21.117Z,66.47
2018-12-06T09:48:49.550Z,66.50
2018-12-06T09:51:17.951Z,66.23
2018-12-06T09:53:46.297Z,66.13
2018-12-06T09:56:14.714Z,66.27
2018-12-06T09:58:43.069Z,66.17
2018-12-06T10:01:11.457Z,66.27
2018-12-06T10:03:40.038Z,66.17
2018-12-06T10:06:08.163Z,66.35
2018-12-06T10:08:36.509Z,66.38
2018-12-06T10:11:04.836Z,66.23
2018-12-06T10:13:33.166Z,66.17
2018-12-06T10:16:01.482Z,65.83
2018-12-06T10:18:29.829Z,65.65
2018-12-06T10:20:58.145Z,65.40
2018-12-06T10:23:26.532Z,65.66
2018-12-06T10:25:56.714Z,65.54
2018-12-06T10:28:25.414Z,65.49
2018-12-06T10:30:53.846Z,65.34
2018-12-06T10:33:22.329Z,65.00
2018-12-06T10:35:50.652Z,65.21
2018-12-06T10:38:18.992Z,65.59
2018-12-06T10:40:47.334Z,65.41
2018-12-06T10:43:15.690Z,65.41
2018-12-06T10:45:44.414Z,65.37
2018-12-06T10:48:12.667Z,65.63
2018-12-06T10:50:41.455Z,65.45
2018-12-06T10:53:09.800Z,65.41
2018-12-06T10:55:38.137Z,65.45
2018-12-06T10:58:06.468Z,65.43
2018-12-06T11:00:40.567Z,65.34
2018-12-06T11:03:12.565Z,65.48
2018-12-06T11:05:40.910Z,65.77
2018-12-06T11:08:09.272Z,65.52
2018-12-06T11:10:37.685Z,65.50
2018-12-06T11:13:06.035Z,65.37
2018-12-06T11:15:34.978Z,65.24
2018-12-06T11:18:03.354Z,65.51
2018-12-06T11:20:31.705Z,65.19
2018-12-06T11:23:00.028Z,65.20
2018-12-06T11:25:28.442Z,65.06
2018-12-06T11:27:56.994Z,65.16
2018-12-06T11:30:25.520Z,65.09
2018-12-06T11:32:54.114Z,65.14
2018-12-06T11:35:22.503Z,65.23
2018-12-06T11:37:51.143Z,65.30
2018-12-06T11:40:19.492Z,64.99
2018-12-06T11:42:48.029Z,65.23
2018-12-06T11:45:16.383Z,65.36
2018-12-06T11:47:44.853Z,65.13
2018-12-06T11:50:13.182Z,65.15
2018-12-06T11:52:41.587Z,65.25
2018-12-06T11:55:10.586Z,65.20
2018-12-06T11:57:39.725Z,65.35
2018-12-06T12:00:08.180Z,65.72
2018-12-06T12:02:38.205Z,65.51
2018-12-06T12:05:06.536Z,65.67
2018-12-06T12:07:34.941Z,65.70
2018-12-06T12:10:03.273Z,65.57
2018-12-06T12:12:32.017Z,65.26
2018-12-06T12:15:01.008Z,65.30
2018-12-06T12:17:29.554Z,65.30
2018-12-06T12:19:57.707Z,65.33
2018-12-06T12:22:26.041Z,65.28
2018-12-06T12:24:54.392Z,65.25
2018-12-06T12:27:22.843Z,65.16
2018-12-06T12:29:51.356Z,65.18
2018-12-06T12:32:19.720Z,65.06
2018-12-06T12:34:48.141Z,64.95
2018-12-06T12:37:16.472Z,64.93
2018-12-06T12:39:44.840Z,64.71
2018-12-06T12:42:13.169Z,64.65
2018-12-06T12:44:41.503Z,64.70
2018-12-06T12:47:09.851Z,64.76
2018-12-06T12:49:38.426Z,64.72
2018-12-06T12:52:06.543Z,64.79
2018-12-06T12:54:35.090Z,64.77
2018-12-06T12:57:03.527Z,65.00
2018-12-06T12:59:31.873Z,64.89
2018-12-06T13:02:00.419Z,64.90
2018-12-06T13:04:28.903Z,64.69
2018-12-06T13:06:57.222Z,64.62
2018-12-06T13:09:25.562Z,64.44
2018-12-06T13:11:54.146Z,64.52
2018-12-06T13:14:22.250Z,64.75
2018-12-06T13:16:50.603Z,64.57
2018-12-06T13:19:19.363Z,64.18
2018-12-06T13:21:47.703Z,64.12
2018-12-06T13:24:16.059Z,64.06
2018-12-06T13:26:44.416Z,63.98
2018-12-06T13:29:12.745Z,63.94
2018-12-06T13:31:41.084Z,63.96
2018-12-06T13:34:09.435Z,64.20
2018-12-06T13:36:37.769Z,64.02
2018-12-06T13:39:06.123Z,64.16
2018-12-06T13:41:34.494Z,63.89
2018-12-06T13:44:02.813Z,64.00
2018-12-06T13:46:31.240Z,64.11
2018-12-06T13:48:59.580Z,64.14
2018-12-06T13:51:28.142Z,64.29
2018-12-06T13:53:56.258Z,64.30
2018-12-06T13:56:24.775Z,64.25
2018-12-06T13:58:53.103Z,64.50
2018-12-06T14:01:21.657Z,64.53
2018-12-06T14:03:49.869Z,64.53
2018-12-06T14:06:18.156Z,64.62
2018-12-06T14:08:46.500Z,64.61
2018-12-06T14:11:14.835Z,64.62
2018-12-06T14:13:43.177Z,64.71
2018-12-06T14:16:11.576Z,64.85
2018-12-06T14:18:39.866Z,64.94
2018-12-06T14:21:08.646Z,64.95
2018-12-06T14:23:36.548Z,65.14
2018-12-06T14:26:04.922Z,65.28
2018-12-06T14:28:35.184Z,65.33
2018-12-06T14:31:04.464Z,65.63
2018-12-06T14:33:32.916Z,65.70
2018-12-06T14:36:02.170Z,65.93
2018-12-06T14:38:30.528Z,65.87
2018-12-06T14:40:58.866Z,65.90
2018-12-06T14:43:27.200Z,66.09
2018-12-06T14:45:55.541Z,66.21
2018-12-06T14:48:23.871Z,66.34
2018-12-06T14:50:52.233Z,66.42
2018-12-06T14:53:20.538Z,66.58
2018-12-06T14:55:48.881Z,66.63
2018-12-06T14:58:17.465Z,66.74
2018-12-06T15:00:45.627Z,66.87
2018-12-06T15:03:13.963Z,66.85
2018-12-06T15:05:42.308Z,66.93
2018-12-06T15:08:10.693Z,66.99
2018-12-06T15:10:39.925Z,67.11
2018-12-06T15:13:08.251Z,67.38
2018-12-06T15:15:36.583Z,67.56
2018-12-06T15:18:06.055Z,67.49
2018-12-06T15:20:34.157Z,67.53
2018-12-06T15:23:02.496Z,67.67
2018-12-06T15:25:30.847Z,67.47
2018-12-06T15:27:59.192Z,67.50
2018-12-06T15:30:27.770Z,67.46
2018-12-06T15:32:55.882Z,67.68
2018-12-06T15:35:24.212Z,67.68
2018-12-06T15:37:52.554Z,67.89
2018-12-06T15:40:20.891Z,68.05
2018-12-06T15:42:49.239Z,67.88
2018-12-06T15:45:17.852Z,68.14
2018-12-06T15:47:45.982Z,68.21
2018-12-06T15:50:14.317Z,68.34
2018-12-06T15:52:42.662Z,68.32
2018-12-06T15:55:10.997Z,68.41
2018-12-06T15:57:39.321Z,68.42
2018-12-06T16:00:07.673Z,68.62
2018-12-06T16:02:36.005Z,68.69
2018-12-06T16:05:04.359Z,68.60
2018-12-06T16:07:32.694Z,68.48
2018-12-06T16:10:01.745Z,68.46
2018-12-06T16:12:30.091Z,68.84
2018-12-06T16:14:58.491Z,68.70
2018-12-06T16:17:26.759Z,68.86
2018-12-06T16:19:55.112Z,68.97
2018-12-06T16:22:23.471Z,68.76
2018-12-06T16:24:51.821Z,68.84
2018-12-06T16:27:20.150Z,68.76
2018-12-06T16:29:51.479Z,68.79
2018-12-06T16:32:16.839Z,68.64
2018-12-06T16:34:45.881Z,68.54
2018-12-06T16:37:14.231Z,68.57
2018-12-06T16:39:42.586Z,68.55
2018-12-06T16:42:11.298Z,68.68
2018-12-06T16:44:39.656Z,68.51
2018-12-06T16:47:08.033Z,68.54
2018-12-06T16:49:36.376Z,68.44
2018-12-06T16:52:04.947Z,68.36
2018-12-06T16:54:33.306Z,68.46
2018-12-06T16:57:01.883Z,68.35
2018-12-06T16:59:30.223Z,68.36
2018-12-06T17:01:58.559Z,68.54
2018-12-06T17:04:26.908Z,68.55
2018-12-06T17:06:55.256Z,68.54
2018-12-06T17:09:23.639Z,68.46
2018-12-06T17:11:52.004Z,68.55
2018-12-06T17:14:20.334Z,68.24
2018-12-06T17:16:48.726Z,68.20
2018-12-06T17:19:17.091Z,68.26
2018-12-06T17:21:45.448Z,68.37
2018-12-06T17:24:13.786Z,68.11
2018-12-06T17:26:42.204Z,68.19
2018-12-06T17:29:10.531Z,68.46
2018-12-06T17:31:38.868Z,68.88
2018-12-06T17:34:07.239Z,69.22
2018-12-06T17:36:35.586Z,69.45
2018-12-06T17:39:03.937Z,69.84
2018-12-06T17:41:32.273Z,70.43
2018-12-06T17:44:00.651Z,70.69
2018-12-06T17:46:28.987Z,70.84
2018-12-06T17:48:57.340Z,71.17
2018-12-06T17:51:26.243Z,71.23
2018-12-06T17:53:54.818Z,71.30
2018-12-06T17:56:23.159Z,71.99
2018-12-06T17:58:51.751Z,72.39
2018-12-06T18:01:20.213Z,72.61
2018-12-06T18:03:48.403Z,72.70
2018-12-06T18:06:16.780Z,73.64
2018-12-06T18:08:46.161Z,74.09
2018-12-06T18:11:14.293Z,73.87
2018-12-06T18:13:42.771Z,73.02
2018-12-06T18:16:11.087Z,73.60
2018-12-06T18:18:40.510Z,74.40
2018-12-06T18:21:07.742Z,74.86
2018-12-06T18:23:36.137Z,74.67
2018-12-06T18:26:04.471Z,75.04
2018-12-06T18:28:32.838Z,75.02
2018-12-06T18:31:01.185Z,75.76
2018-12-06T18:33:29.517Z,75.78
2018-12-06T18:35:57.859Z,75.75
2018-12-06T18:38:26.214Z,75.66
2018-12-06T18:40:54.685Z,75.72
2018-12-06T18:43:23.049Z,76.59
2018-12-06T18:45:51.392Z,76.53
2018-12-06T18:48:19.745Z,76.10
2018-12-06T18:50:48.072Z,76.93
2018-12-06T18:53:17.211Z,76.97
2018-12-06T18:55:45.586Z,77.33
2018-12-06T18:58:13.930Z,77.15
2018-12-06T19:00:42.331Z,76.65
2018-12-06T19:03:11.017Z,77.71
2018-12-06T19:05:39.186Z,77.67
2018-12-06T19:08:08.883Z,77.97
2018-12-06T19:10:35.868Z,77.81
2018-12-06T19:13:04.203Z,77.96
2018-12-06T19:15:32.827Z,77.52
2018-12-06T19:18:00.961Z,77.28
2018-12-06T19:20:29.327Z,77.51
2018-12-06T19:22:58.312Z,77.27
2018-12-06T19:25:26.648Z,77.44
2018-12-06T19:27:55.029Z,77.43
2018-12-06T19:30:23.477Z,77.90
2018-12-06T19:32:57.718Z,77.29
2018-12-06T19:35:21.444Z,77.93
2018-12-06T19:37:48.760Z,77.80
2018-12-06T19:40:17.119Z,78.18
2018-12-06T19:42:45.617Z,78.23
2018-12-06T19:45:14.240Z,78.70
2018-12-06T19:47:43.314Z,78.52
2018-12-06T19:50:11.911Z,79.08
2018-12-06T19:52:40.015Z,79.18
2018-12-06T19:55:08.540Z,78.34
2018-12-06T19:57:36.910Z,78.86
2018-12-06T20:00:05.540Z,79.00
2018-12-06T20:02:33.655Z,79.20
2018-12-06T20:05:01.999Z,79.26
2018-12-06T20:07:31.592Z,79.25
2018-12-06T20:10:01.001Z,79.32
2018-12-06T20:12:30.658Z,79.33
2018-12-06T20:14:58.988Z,79.84
2018-12-06T20:17:27.808Z,79.49
2018-12-06T20:19:57.654Z,79.01
2018-12-06T20:22:26.726Z,79.33
2018-12-06T20:24:55.072Z,79.82
2018-12-06T20:27:23.842Z,79.96
2018-12-06T20:29:52.315Z,80.17
2018-12-06T20:32:20.654Z,80.08
2018-12-06T20:34:49.031Z,80.13
2018-12-06T20:37:17.503Z,79.92
2018-12-06T20:39:46.003Z,79.62
2018-12-06T20:42:14.581Z,79.39
2018-12-06T20:44:43.110Z,79.92
2018-12-06T20:47:11.238Z,80.15
2018-12-06T20:49:39.616Z,79.85
2018-12-06T20:52:07.941Z,80.45
2018-12-06T20:54:36.578Z,80.45
2018-12-06T20:57:04.790Z,80.38
2018-12-06T20:59:34.429Z,80.33
2018-12-06T21:02:02.764Z,80.16
2018-12-06T21:04:31.102Z,80.14
2018-12-06T21:06:59.515Z,80.26
2018-12-06T21:09:27.860Z,80.14
2018-12-06T21:11:56.217Z,80.21
2018-12-06T21:14:24.566Z,80.16
2018-12-06T21:16:53.140Z,79.84
2018-12-06T21:19:21.269Z,80.21
2018-12-06T21:21:49.642Z,80.60
2018-12-06T21:24:17.951Z,80.51
2018-12-06T21:26:46.304Z,80.50
2018-12-06T21:29:15.620Z,80.22
2018-12-06T21:31:43.000Z,80.30
2018-12-06T21:34:11.342Z,80.42
2018-12-06T21:36:39.665Z,80.12
2018-12-06T21:39:08.005Z,80.40
2018-12-06T21:41:36.421Z,80.75
2018-12-06T21:44:04.715Z,80.61
2018-12-06T21:46:33.059Z,80.54
2018-12-06T21:49:01.400Z,80.45
2018-12-06T21:51:29.949Z,80.27
2018-12-06T21:53:58.306Z,80.66
2018-12-06T21:56:26.669Z,80.89
2018-12-06T21:58:55.069Z,80.89
2018-12-06T22:01:23.789Z,81.18
2018-12-06T22:03:52.232Z,80.99
2018-12-06T22:06:20.564Z,80.65
2018-12-06T22:08:48.907Z,80.84
2018-12-06T22:11:17.532Z,81.28
2018-12-06T22:13:46.111Z,80.64
2018-12-06T22:16:14.522Z,80.99
2018-12-06T22:18:42.976Z,81.23
2018-12-06T22:21:11.725Z,81.33
2018-12-06T22:23:40.063Z,81.19
2018-12-06T22:26:09.356Z,80.99
2018-12-06T22:28:36.836Z,81.05
2018-12-06T22:31:05.199Z,80.81
2018-12-06T22:33:33.606Z,81.34
2018-12-06T22:36:02.819Z,81.53
2018-12-06T22:38:34.113Z,81.64
2018-12-06T22:40:58.658Z,81.74
2018-12-06T22:43:27.003Z,81.59
2018-12-06T22:45:55.371Z,81.35
2018-12-06T22:48:23.751Z,81.74
2018-12-06T22:50:52.156Z,81.72
2018-12-06T22:53:20.912Z,82.25
2018-12-06T22:55:50.033Z,82.46
2018-12-06T22:58:18.383Z,82.46
2018-12-06T23:00:46.722Z,81.96
2018-12-06T23:03:15.979Z,82.48
2018-12-06T23:05:45.441Z,82.77
2018-12-06T23:08:13.847Z,82.45
2018-12-06T23:10:42.324Z,81.69
2018-12-06T23:13:13.534Z,81.70
2018-12-06T23:15:43.018Z,82.14
2018-12-06T23:18:11.096Z,82.76
2018-12-06T23:20:41.463Z,83.04
2018-12-06T23:23:10.880Z,82.97
2018-12-06T23:25:39.208Z,83.02
2018-12-06T23:28:09.170Z,82.33
2018-12-06T23:30:40.096Z,82.33
2018-12-06T23:33:08.680Z,82.97
2018-12-06T23:35:39.590Z,83.00
2018-12-06T23:38:06.984Z,82.55
2018-12-06T23:40:36.587Z,82.83
2018-12-06T23:43:05.672Z,82.86
2018-12-06T23:45:34.695Z,83.17
2018-12-06T23:48:03.369Z,83.16
2018-12-06T23:50:33.039Z,82.87
2018-12-06T23:53:01.235Z,83.14
2018-12-06T23:55:29.610Z,83.03
2018-12-06T23:57:58.185Z,83.20
